Time;durP1;ratioP1;P1;durP2;ratioP2;P2;SDS_P1;SDS_P2;PMS_P1;PMS_P2;Temp;Humidity;BMP_temperature;BMP_pressure;BME280_temperature;BME280_humidity;BME280_pressure;Samples;Min_cycle;Max_cycle;Signal;HPM_P1;HPM_P2
2020/12/28 00:00:34;;;;;;;1.33;1.10;;;4.90;99.90;;;;;;5132347;27;20059;-72
2020/12/28 00:03:00;;;;;;;2.35;1.00;;;4.90;99.90;;;;;;5110451;27;20075;-72
2020/12/28 00:05:27;;;;;;;1.50;1.10;;;4.80;99.90;;;;;;5132079;27;20046;-73
2020/12/28 00:07:54;;;;;;;1.30;1.20;;;4.70;99.90;;;;;;5131963;27;20039;-72
2020/12/28 00:10:22;;;;;;;1.92;1.17;;;4.90;99.90;;;;;;5129088;27;20122;-72
2020/12/28 00:12:49;;;;;;;1.48;1.30;;;4.90;99.90;;;;;;5113560;27;20413;-72
2020/12/28 00:15:28;;;;;;;1.20;1.00;;;4.90;99.90;;;;;;5113540;27;20118;-73
2020/12/28 00:17:58;;;;;;;1.00;1.00;;;4.90;99.90;;;;;;5131424;27;20047;-72
2020/12/28 00:20:28;;;;;;;1.08;1.08;;;5.00;99.90;;;;;;5131517;27;20047;-73
2020/12/28 00:22:55;;;;;;;0.93;0.93;;;4.90;99.90;;;;;;5113691;27;20051;-71
2020/12/28 00:25:23;;;;;;;2.38;1.42;;;4.80;99.90;;;;;;5128967;27;20047;-72
2020/12/28 00:27:50;;;;;;;1.00;1.00;;;4.80;99.90;;;;;;5131226;27;20053;-72
2020/12/28 00:30:17;;;;;;;1.00;1.00;;;4.80;99.90;;;;;;5131445;27;20112;-72
2020/12/28 00:32:43;;;;;;;1.30;1.20;;;4.80;99.90;;;;;;5121572;27;20047;-73
2020/12/28 00:35:11;;;;;;;1.20;1.10;;;4.70;99.90;;;;;;5130897;27;20043;-72
2020/12/28 00:37:39;;;;;;;1.92;1.10;;;4.60;99.90;;;;;;5124719;27;20454;-72
2020/12/28 00:40:07;;;;;;;1.67;1.30;;;4.60;99.90;;;;;;5094837;28;20130;-72
2020/12/28 00:42:34;;;;;;;1.25;1.15;;;4.60;99.90;;;;;;5129956;27;20636;-73
2020/12/28 00:45:00;;;;;;;1.50;1.20;;;4.50;99.90;;;;;;5130673;27;20503;-71
2020/12/28 00:47:27;;;;;;;1.17;1.10;;;4.50;99.90;;;;;;5130766;27;20090;-73
2020/12/28 00:49:53;;;;;;;3.42;1.23;;;4.50;99.90;;;;;;5130843;27;20470;-72
2020/12/28 00:52:19;;;;;;;1.50;1.40;;;4.50;99.90;;;;;;5118902;27;20505;-73
2020/12/28 00:54:46;;;;;;;1.40;1.30;;;4.50;99.90;;;;;;5130325;27;20043;-73
2020/12/28 00:57:12;;;;;;;1.40;1.30;;;4.40;99.90;;;;;;5125071;27;20088;-72
2020/12/28 00:59:39;;;;;;;2.17;1.38;;;4.40;99.90;;;;;;5131267;27;20043;-72
2020/12/28 01:02:05;;;;;;;1.40;1.30;;;4.40;99.90;;;;;;5127969;27;20100;-72
2020/12/28 01:04:32;;;;;;;1.60;1.50;;;4.30;99.90;;;;;;5128805;27;20043;-72
2020/12/28 01:06:58;;;;;;;1.70;1.60;;;4.40;99.90;;;;;;5121399;27;20058;-72
2020/12/28 01:09:28;;;;;;;1.75;1.65;;;4.30;99.90;;;;;;5128359;27;20047;-72
2020/12/28 01:11:56;;;;;;;1.20;1.20;;;4.30;99.90;;;;;;5119156;27;20058;-71
2020/12/28 01:14:23;;;;;;;1.80;1.70;;;4.20;99.90;;;;;;5127898;27;20071;-72
2020/12/28 01:16:50;;;;;;;1.85;1.75;;;4.20;99.90;;;;;;5115520;27;20048;-72
2020/12/28 01:19:16;;;;;;;1.65;1.55;;;4.30;99.90;;;;;;5112709;27;20043;-72
2020/12/28 01:21:42;;;;;;;1.98;1.60;;;4.30;99.90;;;;;;5130160;27;20047;-71
2020/12/28 01:24:08;;;;;;;1.88;1.60;;;4.30;99.90;;;;;;5121336;27;20210;-72
2020/12/28 01:26:35;;;;;;;1.50;1.40;;;4.40;99.90;;;;;;5104071;27;20049;-72
2020/12/28 01:29:01;;;;;;;2.03;1.58;;;4.40;99.90;;;;;;5130708;27;20122;-72
2020/12/28 01:31:28;;;;;;;1.65;1.55;;;4.40;99.90;;;;;;5130219;27;20083;-72
2020/12/28 01:33:55;;;;;;;2.25;1.70;;;4.40;99.90;;;;;;5116847;27;20043;-71
2020/12/28 01:36:21;;;;;;;1.50;1.40;;;4.40;99.90;;;;;;5120162;27;20123;-72
2020/12/28 01:38:48;;;;;;;2.00;1.60;;;4.40;99.90;;;;;;5125055;27;20108;-72
2020/12/28 01:41:15;;;;;;;1.58;1.48;;;4.40;99.90;;;;;;5109139;27;20044;-72
2020/12/28 01:43:41;;;;;;;1.98;1.55;;;4.40;99.90;;;;;;5122802;27;20113;-72
2020/12/28 01:46:09;;;;;;;2.03;1.50;;;4.40;99.90;;;;;;5129838;27;20047;-71
2020/12/28 01:48:35;;;;;;;1.83;1.52;;;4.30;99.90;;;;;;5129978;27;20098;-72
2020/12/28 01:51:01;;;;;;;1.67;1.58;;;4.20;99.90;;;;;;5129721;27;20047;-71
2020/12/28 01:53:28;;;;;;;3.92;1.75;;;4.20;99.90;;;;;;5102090;27;20131;-72
2020/12/28 01:56:05;;;;;;;2.90;2.17;;;4.20;99.90;;;;;;5109531;28;20046;-71
2020/12/28 01:58:31;;;;;;;2.67;2.10;;;4.10;99.90;;;;;;5130030;27;20062;-71
2020/12/28 02:00:59;;;;;;;2.65;2.00;;;4.00;99.90;;;;;;5130369;27;20047;-71
2020/12/28 02:03:29;;;;;;;2.03;1.92;;;4.00;99.90;;;;;;5130251;27;20119;-72
2020/12/28 02:05:55;;;;;;;2.40;2.15;;;3.90;99.90;;;;;;5111015;28;20512;-71
2020/12/28 02:08:22;;;;;;;2.10;2.00;;;3.90;99.90;;;;;;5129934;27;20112;-72
2020/12/28 02:10:54;;;;;;;2.40;2.20;;;3.80;99.90;;;;;;5126702;28;20083;-73
2020/12/28 02:13:22;;;;;;;2.72;2.53;;;3.70;99.90;;;;;;5130021;28;20478;-73
2020/12/28 02:15:48;;;;;;;2.35;2.15;;;3.70;99.90;;;;;;5120181;28;20082;-73
2020/12/28 02:18:19;;;;;;;3.70;2.72;;;3.70;99.90;;;;;;5123702;27;20073;-73
2020/12/28 02:20:46;;;;;;;4.00;2.47;;;3.60;99.90;;;;;;5115472;27;20053;-74
2020/12/28 02:23:12;;;;;;;3.25;2.80;;;3.60;99.90;;;;;;5116136;27;20078;-73
2020/12/28 02:25:39;;;;;;;2.75;2.20;;;3.60;99.90;;;;;;5119251;27;20039;-73
2020/12/28 02:28:05;;;;;;;2.17;1.98;;;3.60;99.90;;;;;;5134200;27;20100;-73
2020/12/28 02:30:35;;;;;;;2.40;2.20;;;3.60;99.90;;;;;;5133880;27;20122;-73
2020/12/28 02:33:02;;;;;;;2.13;1.90;;;3.60;99.90;;;;;;5115666;27;20081;-73
2020/12/28 02:35:28;;;;;;;2.50;2.10;;;3.60;99.90;;;;;;5114981;27;20068;-73
2020/12/28 02:37:55;;;;;;;2.58;2.00;;;3.60;99.90;;;;;;5133771;27;20131;-73
2020/12/28 02:40:21;;;;;;;2.45;2.25;;;3.50;99.90;;;;;;5108983;28;20147;-74
2020/12/28 02:42:48;;;;;;;2.63;2.35;;;3.50;99.90;;;;;;5119299;27;20114;-73
2020/12/28 02:45:15;;;;;;;2.03;1.92;;;3.40;99.90;;;;;;5133707;27;20085;-73
2020/12/28 02:47:41;;;;;;;2.28;1.80;;;3.40;99.90;;;;;;5119932;27;20063;-73
2020/12/28 02:50:10;;;;;;;1.88;1.70;;;3.30;99.90;;;;;;5133285;27;20051;-73
2020/12/28 02:52:37;;;;;;;2.65;1.80;;;3.30;99.90;;;;;;5133285;27;20103;-73
2020/12/28 02:55:03;;;;;;;3.92;1.73;;;3.30;99.90;;;;;;5132964;27;20154;-73
2020/12/28 02:57:29;;;;;;;1.92;1.80;;;3.30;99.90;;;;;;5114818;27;20124;-73
2020/12/28 02:59:56;;;;;;;1.80;1.70;;;3.20;99.90;;;;;;5114845;27;20105;-73
2020/12/28 03:02:22;;;;;;;1.70;1.60;;;3.20;99.90;;;;;;5113225;27;20409;-74
2020/12/28 03:04:49;;;;;;;1.70;1.60;;;3.30;99.90;;;;;;5133488;27;20043;-74
2020/12/28 03:07:15;;;;;;;1.70;1.60;;;3.20;99.90;;;;;;5132768;27;20419;-73
2020/12/28 03:09:42;;;;;;;1.70;1.60;;;3.20;99.90;;;;;;5131893;27;20492;-73
2020/12/28 03:12:08;;;;;;;2.58;1.58;;;3.10;99.90;;;;;;5133053;27;20092;-73
2020/12/28 03:14:34;;;;;;;1.73;1.63;;;3.10;99.90;;;;;;5132935;27;20047;-73
2020/12/28 03:17:01;;;;;;;1.40;1.30;;;3.10;99.90;;;;;;5122625;27;20482;-73
2020/12/28 03:19:27;;;;;;;1.40;1.30;;;3.10;99.90;;;;;;5133254;27;20122;-74
2020/12/28 03:21:54;;;;;;;1.50;1.40;;;3.10;99.90;;;;;;5131882;27;20408;-74
2020/12/28 03:24:20;;;;;;;3.20;1.73;;;3.10;99.90;;;;;;5128668;27;20135;-73
2020/12/28 03:26:46;;;;;;;1.75;1.65;;;3.00;99.90;;;;;;5128572;27;20047;-74
2020/12/28 03:29:13;;;;;;;1.30;1.20;;;3.00;99.90;;;;;;5132398;27;20082;-73
2020/12/28 03:31:40;;;;;;;2.58;1.55;;;3.00;99.90;;;;;;5132137;27;20079;-74
2020/12/28 03:34:06;;;;;;;1.73;1.63;;;3.10;99.90;;;;;;5114472;27;20063;-74
2020/12/28 03:36:33;;;;;;;1.60;1.50;;;3.00;99.90;;;;;;5132100;27;20387;-74
2020/12/28 03:39:00;;;;;;;3.20;1.50;;;3.00;99.90;;;;;;5127909;27;20144;-74
2020/12/28 03:41:26;;;;;;;1.60;1.30;;;3.00;99.90;;;;;;5131826;27;20194;-74
2020/12/28 03:43:53;;;;;;;1.48;1.38;;;3.00;99.90;;;;;;5132256;27;20103;-73
2020/12/28 03:46:19;;;;;;;1.45;1.30;;;3.00;99.90;;;;;;5112279;27;20039;-74
2020/12/28 03:48:45;;;;;;;1.20;1.10;;;3.00;99.90;;;;;;5127741;27;20051;-74
2020/12/28 03:51:12;;;;;;;1.40;1.20;;;3.00;99.90;;;;;;5113945;27;20361;-73
2020/12/28 03:53:39;;;;;;;1.27;1.17;;;3.00;99.90;;;;;;5132801;27;20046;-74
2020/12/28 03:56:05;;;;;;;1.30;1.20;;;3.00;99.90;;;;;;5130636;27;20499;-73
2020/12/28 03:58:32;;;;;;;1.00;1.00;;;3.00;99.90;;;;;;5114016;27;20066;-74
2020/12/28 04:00:58;;;;;;;1.10;1.00;;;3.00;99.90;;;;;;5131938;27;20043;-73
2020/12/28 04:03:25;;;;;;;0.90;0.90;;;3.00;99.90;;;;;;5131860;27;20047;-74
2020/12/28 04:05:52;;;;;;;1.67;0.90;;;3.00;99.90;;;;;;5131454;27;20057;-73
2020/12/28 04:08:19;;;;;;;1.00;1.00;;;3.00;99.90;;;;;;5132124;27;20457;-73
2020/12/28 04:10:45;;;;;;;1.20;1.10;;;3.00;99.90;;;;;;5115174;27;20052;-73
2020/12/28 04:13:11;;;;;;;1.10;1.10;;;3.00;99.90;;;;;;5132714;27;20043;-73
2020/12/28 04:15:37;;;;;;;2.83;1.20;;;3.00;99.90;;;;;;5123086;27;20196;-73
2020/12/28 04:18:04;;;;;;;1.05;1.05;;;2.90;99.90;;;;;;5126990;27;20385;-73
2020/12/28 04:20:30;;;;;;;1.10;1.00;;;2.90;99.90;;;;;;5131345;27;20101;-73
2020/12/28 04:22:57;;;;;;;1.00;1.00;;;2.90;99.90;;;;;;5113961;27;20126;-73
2020/12/28 04:25:23;;;;;;;1.20;1.10;;;2.80;99.90;;;;;;5130661;27;20116;-74
2020/12/28 04:27:50;;;;;;;1.10;1.00;;;2.80;99.90;;;;;;5131280;27;20466;-73
2020/12/28 04:30:16;;;;;;;1.70;1.20;;;2.70;99.90;;;;;;5131016;27;20077;-73
2020/12/28 04:32:43;;;;;;;1.10;1.00;;;2.70;99.90;;;;;;5131205;27;20134;-73
2020/12/28 04:35:09;;;;;;;1.10;1.10;;;2.70;99.90;;;;;;5130514;27;20561;-73
2020/12/28 04:37:36;;;;;;;1.00;1.00;;;2.70;99.90;;;;;;5131705;27;20043;-73
2020/12/28 04:40:03;;;;;;;1.27;0.98;;;2.70;99.90;;;;;;5120293;27;20051;-73
2020/12/28 04:42:30;;;;;;;0.93;0.93;;;2.70;99.90;;;;;;5130722;27;20084;-73
2020/12/28 04:44:58;;;;;;;1.08;1.08;;;2.60;99.90;;;;;;5131264;27;20122;-74
2020/12/28 04:47:25;;;;;;;1.00;1.00;;;2.70;99.90;;;;;;5104138;27;20566;-74
2020/12/28 04:49:52;;;;;;;1.00;1.00;;;2.70;99.90;;;;;;5131015;27;20067;-73
2020/12/28 04:52:19;;;;;;;1.20;1.10;;;2.70;99.90;;;;;;5130663;27;20074;-74
2020/12/28 04:54:47;;;;;;;0.90;0.90;;;2.80;99.90;;;;;;5123145;27;20074;-74
2020/12/28 04:57:14;;;;;;;0.90;0.90;;;2.80;99.90;;;;;;5107164;27;20043;-74
2020/12/28 04:59:40;;;;;;;0.90;0.90;;;2.80;99.90;;;;;;5131216;27;20102;-74
2020/12/28 05:02:07;;;;;;;1.77;1.13;;;2.80;99.90;;;;;;5129363;27;20075;-73
2020/12/28 05:04:33;;;;;;;1.00;1.00;;;2.80;99.90;;;;;;5130466;27;20039;-73
2020/12/28 05:07:03;;;;;;;1.10;1.00;;;2.80;99.90;;;;;;5130609;27;20444;-74
2020/12/28 05:09:30;;;;;;;1.10;1.00;;;2.90;99.90;;;;;;5110605;27;20074;-74
2020/12/28 05:12:01;;;;;;;1.23;1.08;;;2.90;99.90;;;;;;5130328;27;20122;-73
2020/12/28 05:14:29;;;;;;;5.68;1.02;;;2.90;99.90;;;;;;5130880;27;20137;-73
2020/12/28 05:17:07;;;;;;;0.95;0.90;;;2.90;99.90;;;;;;5115918;27;20460;-73
2020/12/28 05:19:34;;;;;;;0.90;0.90;;;2.90;99.90;;;;;;5131110;27;20125;-74
2020/12/28 05:22:01;;;;;;;1.02;1.02;;;2.90;99.90;;;;;;5129621;27;20063;-73
2020/12/28 05:24:28;;;;;;;0.80;0.80;;;2.90;99.90;;;;;;5125389;27;20112;-74
2020/12/28 05:26:57;;;;;;;1.40;1.30;;;2.90;99.90;;;;;;5109522;28;20055;-74
2020/12/28 05:29:26;;;;;;;1.75;1.05;;;2.80;99.90;;;;;;5130028;27;20075;-73
2020/12/28 05:31:55;;;;;;;1.23;1.20;;;2.80;99.90;;;;;;5129949;27;20597;-73
2020/12/28 05:34:26;;;;;;;1.30;1.20;;;2.80;99.90;;;;;;5112390;27;20100;-73
2020/12/28 05:36:55;;;;;;;1.50;1.40;;;2.90;99.90;;;;;;5111974;27;20050;-73
2020/12/28 05:39:25;;;;;;;1.00;1.00;;;2.80;99.90;;;;;;5128623;27;20545;-73
2020/12/28 05:41:57;;;;;;;1.20;1.10;;;2.80;99.90;;;;;;5129564;27;20050;-73
2020/12/28 05:44:25;;;;;;;1.67;1.20;;;2.80;99.90;;;;;;5127461;27;20047;-73
2020/12/28 05:47:02;;;;;;;1.10;1.00;;;2.80;99.90;;;;;;5130021;27;20756;-73
2020/12/28 05:49:33;;;;;;;1.02;1.02;;;2.80;99.90;;;;;;5111899;27;20051;-74
2020/12/28 05:52:00;;;;;;;0.90;0.80;;;2.80;99.90;;;;;;5128793;27;20058;-74
2020/12/28 05:54:28;;;;;;;1.30;1.20;;;2.70;99.90;;;;;;5126521;27;20131;-74
2020/12/28 05:56:58;;;;;;;1.00;1.00;;;2.70;99.90;;;;;;5129938;27;20046;-73
2020/12/28 05:59:24;;;;;;;3.75;1.20;;;2.70;99.90;;;;;;5130269;27;20081;-74
2020/12/28 06:01:53;;;;;;;1.60;1.20;;;2.70;99.90;;;;;;5111398;28;20119;-73
2020/12/28 06:04:21;;;;;;;2.00;1.30;;;2.70;99.90;;;;;;5111339;28;20077;-72
2020/12/28 06:06:48;;;;;;;1.08;1.08;;;2.70;99.90;;;;;;5129649;27;20108;-76
2020/12/28 06:09:17;;;;;;;1.23;1.00;;;2.60;99.90;;;;;;5126216;27;20047;-76
2020/12/28 06:11:44;;;;;;;1.10;1.10;;;2.60;99.90;;;;;;5116147;28;20138;-77
2020/12/28 06:14:15;;;;;;;3.00;1.25;;;2.60;99.90;;;;;;5127841;27;20107;-75
2020/12/28 06:16:42;;;;;;;1.52;1.20;;;2.60;99.90;;;;;;5114909;28;20039;-74
2020/12/28 06:19:25;;;;;;;2.45;1.33;;;2.60;99.90;;;;;;5130309;28;20202;-75
2020/12/28 06:21:52;;;;;;;1.40;1.30;;;2.50;99.90;;;;;;5128889;27;20096;-74
2020/12/28 06:24:30;;;;;;;1.13;1.02;;;2.50;99.90;;;;;;5107368;28;20055;-73
2020/12/28 06:27:02;;;;;;;4.53;1.30;;;2.50;99.90;;;;;;5090877;28;20079;-72
2020/12/28 06:29:30;;;;;;;2.03;1.25;;;2.50;99.90;;;;;;5103160;27;20047;-72
2020/12/28 06:31:57;;;;;;;1.30;1.20;;;2.40;99.90;;;;;;5096681;28;20039;-72
2020/12/28 06:34:24;;;;;;;1.40;1.30;;;2.40;99.90;;;;;;5111833;28;20135;-73
2020/12/28 06:37:01;;;;;;;1.58;1.00;;;2.40;99.90;;;;;;5129209;28;20043;-73
2020/12/28 06:39:28;;;;;;;1.90;1.30;;;2.40;99.90;;;;;;5126258;28;20108;-73
2020/12/28 06:42:09;;;;;;;3.55;1.50;;;2.40;99.90;;;;;;5110377;27;20043;-73
2020/12/28 06:44:35;;;;;;;1.85;1.33;;;2.30;99.90;;;;;;5130107;28;20071;-73
2020/12/28 06:47:14;;;;;;;1.42;1.33;;;2.40;99.90;;;;;;5129017;28;20081;-73
2020/12/28 06:49:42;;;;;;;1.67;1.30;;;2.30;99.90;;;;;;5127293;27;20039;-74
2020/12/28 06:52:08;;;;;;;3.17;1.30;;;2.30;99.90;;;;;;5111982;28;20084;-73
2020/12/28 06:54:35;;;;;;;2.92;1.50;;;2.30;99.90;;;;;;5113828;27;20043;-73
2020/12/28 06:57:06;;;;;;;1.55;1.45;;;2.30;99.90;;;;;;5114527;28;20048;-73
2020/12/28 06:59:33;;;;;;;1.40;1.30;;;2.30;99.90;;;;;;5109067;28;20069;-73
2020/12/28 07:02:01;;;;;;;1.40;1.30;;;2.20;99.90;;;;;;5109482;27;20482;-72
2020/12/28 07:04:33;;;;;;;2.38;1.50;;;2.20;99.90;;;;;;5112933;28;20036;-73
2020/12/28 07:07:01;;;;;;;1.60;1.50;;;2.20;99.90;;;;;;5123733;27;20043;-73
2020/12/28 07:09:28;;;;;;;1.85;1.50;;;2.20;99.90;;;;;;5119169;27;20079;-73
2020/12/28 07:11:55;;;;;;;2.20;1.50;;;2.20;99.90;;;;;;5113173;27;20046;-73
2020/12/28 07:14:21;;;;;;;3.47;1.70;;;2.10;99.90;;;;;;5119011;27;21441;-74
2020/12/28 07:16:55;;;;;;;1.75;1.65;;;2.10;99.90;;;;;;5125381;27;20047;-74
2020/12/28 07:19:22;;;;;;;2.03;1.83;;;2.10;99.90;;;;;;5133934;27;20137;-74
2020/12/28 07:21:49;;;;;;;1.98;1.70;;;2.10;99.90;;;;;;5125082;27;20078;-74
2020/12/28 07:24:15;;;;;;;1.60;1.50;;;2.10;99.90;;;;;;5127169;27;20051;-74
2020/12/28 07:26:47;;;;;;;1.95;1.50;;;2.00;99.90;;;;;;5131972;27;20123;-73
2020/12/28 07:29:15;;;;;;;1.80;1.70;;;2.00;99.90;;;;;;5119170;27;20093;-74
2020/12/28 07:31:42;;;;;;;3.33;1.70;;;2.00;99.90;;;;;;5115522;27;20113;-74
2020/12/28 07:34:27;;;;;;;2.25;1.80;;;2.00;99.90;;;;;;5124225;27;20112;-74
2020/12/28 07:36:56;;;;;;;2.92;1.70;;;2.00;99.90;;;;;;5127569;27;20516;-73
2020/12/28 07:39:23;;;;;;;1.60;1.50;;;2.00;99.90;;;;;;5112386;27;20079;-74
2020/12/28 07:41:49;;;;;;;3.08;1.83;;;1.90;99.90;;;;;;5131146;27;20082;-73
2020/12/28 07:44:16;;;;;;;3.97;1.60;;;1.90;99.90;;;;;;5105352;28;20462;-73
2020/12/28 07:46:52;;;;;;;2.17;1.50;;;1.90;99.90;;;;;;5130999;27;20130;-72
2020/12/28 07:49:18;;;;;;;2.10;1.55;;;1.80;99.90;;;;;;5118000;27;20134;-73
2020/12/28 07:52:11;;;;;;;2.08;1.75;;;1.80;99.90;;;;;;5110092;28;20183;-74
2020/12/28 07:55:13;;;;;;;1.33;1.23;;;1.80;99.90;;;;;;5092335;28;20051;-74
2020/12/28 07:57:54;;;;;;;1.45;1.33;;;1.80;99.90;;;;;;5102853;27;20118;-73
2020/12/28 08:00:24;;;;;;;3.38;1.60;;;1.80;99.90;;;;;;5111412;27;20467;-74
2020/12/28 08:02:58;;;;;;;2.35;1.60;;;1.80;99.90;;;;;;5117427;27;20084;-73
2020/12/28 08:05:25;;;;;;;1.80;1.40;;;1.80;99.90;;;;;;5117247;27;20048;-74
2020/12/28 08:07:52;;;;;;;3.13;1.73;;;1.80;99.90;;;;;;5113446;27;20044;-73
2020/12/28 08:10:19;;;;;;;1.60;1.50;;;1.80;99.90;;;;;;5114759;27;20104;-73
2020/12/28 08:13:00;;;;;;;2.47;1.60;;;1.90;99.90;;;;;;5092818;28;20078;-74
2020/12/28 08:15:30;;;;;;;2.78;1.58;;;1.90;99.90;;;;;;5110719;27;20421;-74
2020/12/28 08:18:11;;;;;;;2.35;1.70;;;1.90;99.90;;;;;;5101183;27;20055;-73
2020/12/28 08:20:38;;;;;;;2.40;2.20;;;2.00;99.90;;;;;;5102658;28;20048;-74
2020/12/28 08:23:36;;;;;;;5.20;2.80;;;2.00;99.90;;;;;;5110946;27;20048;-74
2020/12/28 08:27:06;;;;;;;5.73;3.20;;;2.10;99.90;;;;;;5065909;28;20055;-73
2020/12/28 08:29:33;;;;;;;3.00;2.17;;;2.20;99.90;;;;;;5061973;27;20297;-73
2020/12/28 08:31:59;;;;;;;3.35;1.50;;;2.30;99.90;;;;;;5091548;27;21341;-73
2020/12/28 08:34:30;;;;;;;1.73;1.63;;;2.30;99.90;;;;;;5109904;27;20476;-73
2020/12/28 08:36:57;;;;;;;1.90;1.55;;;2.40;99.90;;;;;;5119316;27;20074;-74
2020/12/28 08:39:25;;;;;;;2.03;1.70;;;2.40;99.90;;;;;;5109169;27;20506;-73
2020/12/28 08:42:01;;;;;;;2.38;1.58;;;2.40;99.90;;;;;;5111275;27;20427;-73
2020/12/28 08:44:30;;;;;;;2.67;1.58;;;2.50;99.90;;;;;;5110440;27;20039;-73
2020/12/28 08:47:00;;;;;;;2.30;1.92;;;2.50;99.90;;;;;;5111005;27;20108;-73
2020/12/28 08:49:28;;;;;;;3.58;1.80;;;2.50;99.90;;;;;;5091125;27;20080;-74
2020/12/28 08:51:55;;;;;;;3.13;1.50;;;2.50;99.90;;;;;;5108565;27;20504;-72
2020/12/28 08:54:26;;;;;;;2.55;1.60;;;2.50;99.90;;;;;;5091227;28;20670;-73
2020/12/28 08:56:54;;;;;;;2.72;2.03;;;2.50;99.90;;;;;;5111348;27;20060;-74
2020/12/28 08:59:21;;;;;;;2.33;2.00;;;2.50;99.90;;;;;;5109914;27;20512;-73
2020/12/28 09:01:57;;;;;;;1.75;1.40;;;2.50;99.90;;;;;;5094036;27;20154;-73
2020/12/28 09:04:25;;;;;;;1.30;1.20;;;2.50;99.90;;;;;;5093989;27;20043;-73
2020/12/28 09:06:53;;;;;;;2.08;1.38;;;2.60;99.90;;;;;;5095684;27;20108;-72
2020/12/28 09:09:22;;;;;;;2.05;1.05;;;2.70;99.90;;;;;;5110475;27;20480;-73
2020/12/28 09:11:49;;;;;;;1.50;1.10;;;2.70;99.90;;;;;;5113032;27;20058;-73
2020/12/28 09:14:15;;;;;;;1.17;1.17;;;2.70;99.90;;;;;;5096055;27;20482;-74
2020/12/28 09:16:42;;;;;;;1.83;1.40;;;2.70;99.90;;;;;;5091897;27;20100;-74
2020/12/28 09:19:08;;;;;;;1.40;1.30;;;2.70;99.90;;;;;;5099165;27;20098;-73
2020/12/28 09:21:34;;;;;;;1.58;1.48;;;2.70;99.90;;;;;;5097913;27;20422;-73
2020/12/28 09:24:01;;;;;;;1.80;1.40;;;2.60;99.90;;;;;;5110180;27;20075;-73
2020/12/28 09:26:29;;;;;;;2.78;1.95;;;2.60;99.90;;;;;;5115603;27;20062;-74
2020/12/28 09:28:55;;;;;;;3.30;2.00;;;2.60;99.90;;;;;;5107589;27;20039;-73
2020/12/28 09:31:23;;;;;;;2.10;1.90;;;2.60;99.90;;;;;;5110241;27;20075;-74
2020/12/28 09:33:50;;;;;;;3.00;2.53;;;2.60;99.90;;;;;;5110768;27;20363;-73
2020/12/28 09:36:20;;;;;;;4.90;4.00;;;2.60;99.90;;;;;;5111467;27;20043;-73
2020/12/28 09:38:48;;;;;;;5.68;2.75;;;2.70;99.90;;;;;;5109598;28;20051;-74
2020/12/28 09:41:16;;;;;;;3.25;2.90;;;2.70;99.90;;;;;;5112715;27;20077;-74
2020/12/28 09:43:43;;;;;;;3.20;2.72;;;2.70;99.90;;;;;;5091450;28;20079;-73
2020/12/28 09:46:10;;;;;;;3.25;2.80;;;2.70;99.90;;;;;;5119529;27;20072;-73
2020/12/28 09:48:37;;;;;;;3.33;2.80;;;2.70;99.90;;;;;;5130007;27;20047;-73
2020/12/28 09:51:05;;;;;;;4.45;3.13;;;2.70;99.90;;;;;;5109702;27;20074;-73
2020/12/28 09:53:32;;;;;;;4.30;3.15;;;2.80;99.90;;;;;;5128076;27;20096;-73
2020/12/28 09:55:58;;;;;;;5.88;4.28;;;2.80;99.90;;;;;;5126018;27;20058;-73
2020/12/28 09:58:25;;;;;;;10.35;5.97;;;2.80;99.90;;;;;;5130379;27;20062;-74
2020/12/28 10:00:52;;;;;;;6.03;4.63;;;2.80;99.90;;;;;;5129654;27;20505;-73
2020/12/28 10:03:18;;;;;;;6.80;4.63;;;2.90;99.90;;;;;;5111388;27;20145;-73
2020/12/28 10:05:45;;;;;;;7.32;4.32;;;2.90;99.90;;;;;;5128807;27;20424;-73
2020/12/28 10:08:11;;;;;;;6.05;4.38;;;2.90;99.90;;;;;;5129830;27;20096;-73
2020/12/28 10:10:37;;;;;;;7.68;3.88;;;2.90;99.90;;;;;;5118145;28;20161;-73
2020/12/28 10:13:04;;;;;;;4.90;3.40;;;3.00;99.90;;;;;;5118191;28;20134;-73
2020/12/28 10:15:31;;;;;;;4.80;3.80;;;3.00;99.90;;;;;;5126203;27;20072;-74
2020/12/28 10:18:24;;;;;;;6.30;3.55;;;3.10;99.90;;;;;;5109796;28;20051;-73
2020/12/28 10:20:52;;;;;;;5.13;3.33;;;3.10;99.90;;;;;;5129326;28;20062;-72
2020/12/28 10:23:19;;;;;;;3.35;3.05;;;3.10;99.90;;;;;;5130072;28;20078;-73
2020/12/28 10:25:45;;;;;;;4.50;3.60;;;3.20;99.90;;;;;;5102418;28;20054;-73
2020/12/28 10:28:11;;;;;;;3.22;2.92;;;3.20;99.90;;;;;;5119912;28;20387;-72
2020/12/28 10:30:38;;;;;;;3.10;2.80;;;3.10;99.90;;;;;;5129182;27;20112;-73
2020/12/28 10:33:04;;;;;;;4.55;3.25;;;3.10;99.90;;;;;;5129115;28;20126;-73
2020/12/28 10:35:30;;;;;;;13.38;3.38;;;3.10;99.90;;;;;;5129032;28;20435;-73
2020/12/28 10:37:57;;;;;;;3.38;3.08;;;3.10;99.90;;;;;;5113281;27;20135;-72
2020/12/28 10:40:24;;;;;;;3.42;2.95;;;3.10;99.90;;;;;;5122657;27;20516;-73
2020/12/28 10:43:06;;;;;;;;;;;3.20;99.90;;;;;;5134147;27;20054;-73
2020/12/28 10:45:32;;;;;;;9.93;3.28;;;3.20;99.90;;;;;;5133200;27;19967;-73
2020/12/28 10:47:59;;;;;;;4.72;2.75;;;3.20;99.90;;;;;;5133234;27;20059;-72
2020/12/28 10:50:26;;;;;;;4.75;3.38;;;3.20;99.90;;;;;;5114661;27;20096;-73
2020/12/28 10:52:53;;;;;;;3.53;3.03;;;3.20;99.90;;;;;;5115502;27;20062;-72
2020/12/28 10:55:19;;;;;;;4.32;2.95;;;3.20;99.90;;;;;;5106601;27;20153;-72
2020/12/28 10:57:46;;;;;;;4.53;2.83;;;3.20;99.90;;;;;;5132190;27;20039;-72
2020/12/28 11:00:12;;;;;;;2.72;2.50;;;3.20;99.90;;;;;;5133630;27;20100;-72
2020/12/28 11:02:38;;;;;;;2.42;2.08;;;3.10;99.90;;;;;;5132272;27;20072;-72
2020/12/28 11:05:05;;;;;;;2.60;2.40;;;3.10;99.90;;;;;;5114913;27;20047;-73
2020/12/28 11:07:31;;;;;;;2.67;2.42;;;3.10;99.90;;;;;;5133196;27;20055;-72
2020/12/28 11:09:57;;;;;;;3.08;2.78;;;3.10;99.90;;;;;;5113213;27;20507;-72
2020/12/28 11:12:24;;;;;;;2.70;2.40;;;3.20;99.90;;;;;;5132715;27;20119;-73
2020/12/28 11:14:53;;;;;;;2.95;2.67;;;3.20;99.90;;;;;;5116775;27;20058;-72
2020/12/28 11:17:19;;;;;;;4.72;2.25;;;3.20;99.90;;;;;;5120774;27;20039;-72
2020/12/28 11:19:46;;;;;;;2.78;2.55;;;3.20;99.90;;;;;;5132876;27;20442;-73
2020/12/28 11:22:12;;;;;;;3.92;3.03;;;3.20;99.90;;;;;;5132922;27;20430;-73
2020/12/28 11:24:39;;;;;;;4.18;2.22;;;3.20;99.90;;;;;;5126780;27;20125;-73
2020/12/28 11:27:06;;;;;;;3.17;2.13;;;3.30;99.90;;;;;;5125519;27;20051;-73
2020/12/28 11:29:32;;;;;;;5.65;2.40;;;3.30;99.90;;;;;;5132859;27;20110;-74
2020/12/28 11:31:58;;;;;;;2.35;2.15;;;3.30;99.90;;;;;;5113470;27;20538;-73
2020/12/28 11:34:25;;;;;;;2.55;2.35;;;3.30;99.90;;;;;;5114540;27;20086;-74
2020/12/28 11:36:53;;;;;;;2.58;2.17;;;3.30;99.90;;;;;;5122592;27;20542;-72
2020/12/28 11:39:19;;;;;;;2.55;2.30;;;3.40;99.90;;;;;;5117479;27;20043;-73
2020/12/28 11:41:46;;;;;;;2.45;2.25;;;3.40;99.90;;;;;;5110876;28;20051;-73
2020/12/28 11:44:14;;;;;;;3.58;2.95;;;3.40;99.90;;;;;;5112512;28;20104;-72
2020/12/28 11:46:42;;;;;;;3.55;2.85;;;3.40;99.90;;;;;;5093399;28;20043;-72
2020/12/28 11:49:09;;;;;;;7.43;3.40;;;3.40;99.90;;;;;;5113043;27;20400;-73
2020/12/28 11:51:37;;;;;;;6.65;3.13;;;3.40;99.90;;;;;;5110660;28;20094;-73
2020/12/28 11:54:04;;;;;;;5.63;3.85;;;3.50;99.90;;;;;;5111928;27;20123;-73
2020/12/28 11:56:36;;;;;;;3.70;3.13;;;3.50;99.90;;;;;;5096596;28;20512;-73
2020/12/28 11:59:03;;;;;;;5.55;3.45;;;3.50;99.90;;;;;;5111586;28;20128;-73
2020/12/28 12:01:29;;;;;;;2.72;2.40;;;3.50;99.90;;;;;;5093660;28;20079;-73
2020/12/28 12:03:57;;;;;;;2.33;2.10;;;3.50;99.90;;;;;;5112421;27;20051;-74
2020/12/28 12:06:26;;;;;;;3.05;2.20;;;3.60;99.90;;;;;;5116596;27;20067;-73
2020/12/28 12:09:12;;;;;;;2.80;2.35;;;3.60;99.90;;;;;;5111410;28;20052;-73
2020/12/28 12:11:45;;;;;;;4.93;2.20;;;3.60;99.90;;;;;;5110644;28;20043;-73
2020/12/28 12:14:12;;;;;;;2.63;1.90;;;3.70;99.90;;;;;;5111624;27;20055;-73
2020/12/28 12:16:56;;;;;;;3.45;2.45;;;3.70;99.90;;;;;;5127324;27;20066;-73
2020/12/28 12:19:22;;;;;;;2.58;1.88;;;3.70;99.90;;;;;;5100508;28;20153;-74
2020/12/28 12:21:49;;;;;;;2.30;2.10;;;3.60;99.90;;;;;;5128082;27;20082;-74
2020/12/28 12:24:16;;;;;;;3.22;2.47;;;3.60;99.90;;;;;;5131060;27;20043;-73
2020/12/28 12:26:42;;;;;;;5.05;2.83;;;3.60;99.90;;;;;;5113083;27;20135;-73
2020/12/28 12:29:09;;;;;;;2.28;2.05;;;3.50;99.90;;;;;;5128613;27;20071;-73
2020/12/28 12:31:35;;;;;;;6.93;2.80;;;3.40;99.90;;;;;;5130759;27;20059;-73
2020/12/28 12:34:01;;;;;;;4.53;2.47;;;3.40;99.90;;;;;;5131194;27;20053;-73
2020/12/28 12:36:29;;;;;;;2.85;2.55;;;3.30;99.90;;;;;;5131165;27;20047;-73
2020/12/28 12:38:55;;;;;;;2.78;2.30;;;3.30;99.90;;;;;;5121188;27;20119;-73
2020/12/28 12:41:22;;;;;;;6.07;2.35;;;3.30;99.90;;;;;;5120338;27;20071;-74
2020/12/28 12:43:49;;;;;;;3.03;2.35;;;3.20;99.90;;;;;;5099774;27;20055;-73
2020/12/28 12:46:18;;;;;;;3.83;2.25;;;3.20;99.90;;;;;;5131131;27;20071;-74
2020/12/28 12:48:45;;;;;;;3.75;2.60;;;3.20;99.90;;;;;;5126632;27;20055;-74
2020/12/28 12:51:12;;;;;;;4.22;2.70;;;3.20;99.90;;;;;;5130763;27;20782;-73
2020/12/28 12:53:40;;;;;;;3.65;3.00;;;3.20;99.90;;;;;;5121329;27;20047;-74
2020/12/28 12:56:07;;;;;;;2.63;2.40;;;3.20;99.90;;;;;;5110385;27;20119;-73
2020/12/28 12:58:33;;;;;;;4.80;2.85;;;3.10;99.90;;;;;;5131184;27;20518;-73
2020/12/28 13:01:00;;;;;;;3.22;2.20;;;3.10;99.90;;;;;;5097569;27;20497;-74
2020/12/28 13:03:27;;;;;;;3.22;2.30;;;3.20;99.90;;;;;;5120537;27;20412;-74